createdAt,value
2023-03-07T00:00:41.888Z,31.10
2023-03-07T00:03:17.040Z,31.80
2023-03-07T00:05:44.818Z,34.20
2023-03-07T00:08:12.830Z,33.20
2023-03-07T00:10:40.697Z,33.90
2023-03-07T00:13:08.964Z,33.50
2023-03-07T00:15:38.319Z,33.30
2023-03-07T00:18:07.452Z,33.40
2023-03-07T00:20:35.227Z,36.50
2023-03-07T00:23:04.828Z,38.30
2023-03-07T00:25:32.414Z,37.80
2023-03-07T00:28:00.007Z,37.70
2023-03-07T00:30:27.832Z,37.20
2023-03-07T00:32:55.614Z,37.10
2023-03-07T00:35:23.226Z,38.20
2023-03-07T00:37:50.843Z,38.60
2023-03-07T00:40:18.451Z,39.90
2023-03-07T00:42:46.109Z,39.00
2023-03-07T00:45:13.872Z,38.40
2023-03-07T00:47:41.494Z,37.40
2023-03-07T00:50:09.821Z,36.40
2023-03-07T00:52:37.438Z,34.90
2023-03-07T00:55:06.223Z,33.50
2023-03-07T00:57:34.079Z,34.00
2023-03-07T01:00:01.724Z,34.40
2023-03-07T01:02:30.006Z,38.10
2023-03-07T01:04:57.756Z,34.60
2023-03-07T01:07:25.348Z,34.40
2023-03-07T01:09:53.281Z,34.00
2023-03-07T01:12:21.217Z,33.60
2023-03-07T01:14:51.922Z,35.00
2023-03-07T01:17:19.960Z,35.00
2023-03-07T01:19:47.590Z,34.10
2023-03-07T01:22:15.232Z,34.00
2023-03-07T01:24:43.091Z,31.80
2023-03-07T01:27:10.845Z,29.50
2023-03-07T01:29:38.732Z,31.30
2023-03-07T01:32:06.626Z,28.70
2023-03-07T01:34:34.490Z,28.90
2023-03-07T01:37:02.170Z,29.10
2023-03-07T01:39:30.519Z,27.70
2023-03-07T01:42:02.322Z,27.70
2023-03-07T01:44:30.865Z,30.40
2023-03-07T01:47:00.065Z,30.70
2023-03-07T01:49:43.027Z,31.70
2023-03-07T01:52:33.162Z,29.90
2023-03-07T01:55:08.218Z,30.90
2023-03-07T01:57:37.791Z,32.30
2023-03-07T02:00:10.812Z,40.80
2023-03-07T02:02:44.408Z,34.90
2023-03-07T02:05:16.558Z,35.80
2023-03-07T02:07:47.111Z,36.70
2023-03-07T02:10:19.669Z,38.40
2023-03-07T02:13:44.274Z,35.40
2023-03-07T02:16:39.180Z,33.60
2023-03-07T02:19:19.567Z,35.70
2023-03-07T02:22:00.218Z,36.00
2023-03-07T02:24:36.542Z,35.00
2023-03-07T02:27:05.975Z,34.00
2023-03-07T02:29:33.830Z,33.00
2023-03-07T02:32:02.437Z,33.50
2023-03-07T02:34:31.414Z,32.10
2023-03-07T02:37:20.710Z,31.00
2023-03-07T02:39:48.763Z,29.70
2023-03-07T02:42:22.545Z,31.10
2023-03-07T02:44:58.799Z,29.30
2023-03-07T02:47:28.131Z,28.60
2023-03-07T02:49:56.158Z,29.70
2023-03-07T02:52:24.573Z,30.80
2023-03-07T02:54:52.266Z,29.80
2023-03-07T02:57:20.300Z,29.50
2023-03-07T02:59:47.984Z,29.20
2023-03-07T03:02:15.648Z,30.00
2023-03-07T03:04:43.533Z,29.10
2023-03-07T03:07:11.214Z,28.50
2023-03-07T03:09:38.820Z,30.20
2023-03-07T03:12:06.815Z,28.70
2023-03-07T03:14:35.063Z,28.10
2023-03-07T03:17:03.895Z,28.70
2023-03-07T03:19:31.586Z,30.20
2023-03-07T03:22:14.366Z,29.70
2023-03-07T03:24:45.500Z,28.40
2023-03-07T03:27:15.359Z,28.80
2023-03-07T03:29:44.595Z,28.60
2023-03-07T03:32:12.931Z,28.80
2023-03-07T03:34:41.117Z,29.20
2023-03-07T03:37:08.996Z,29.90
2023-03-07T03:39:37.608Z,28.50
2023-03-07T03:42:06.302Z,28.20
2023-03-07T03:44:34.448Z,29.00
2023-03-07T03:47:04.240Z,29.40
2023-03-07T03:49:33.142Z,33.20
2023-03-07T03:52:01.026Z,33.20
2023-03-07T03:54:28.915Z,36.20
2023-03-07T03:56:57.860Z,31.30
2023-03-07T03:59:25.531Z,31.40
2023-03-07T04:01:55.088Z,31.60
2023-03-07T04:04:23.243Z,39.40
2023-03-07T04:06:51.003Z,36.90
2023-03-07T04:09:18.670Z,35.50
2023-03-07T04:11:48.320Z,34.90
2023-03-07T04:14:16.239Z,34.20
2023-03-07T04:16:43.978Z,34.00
2023-03-07T04:19:13.098Z,36.10
2023-03-07T04:21:42.030Z,32.10
2023-03-07T04:24:09.947Z,33.70
2023-03-07T04:26:37.849Z,33.10
2023-03-07T04:29:05.581Z,33.80
2023-03-07T04:31:36.810Z,32.00
2023-03-07T04:34:06.135Z,32.80
2023-03-07T04:36:34.237Z,34.20
2023-03-07T04:39:01.841Z,33.90
2023-03-07T04:41:30.917Z,33.20
2023-03-07T04:44:02.538Z,34.10
2023-03-07T04:46:30.279Z,33.30
2023-03-07T04:48:57.936Z,36.00
2023-03-07T04:51:26.083Z,36.20
2023-03-07T04:53:53.722Z,36.50
2023-03-07T04:56:21.413Z,38.60
2023-03-07T04:58:49.182Z,38.40
2023-03-07T05:01:18.853Z,38.00
2023-03-07T05:03:47.446Z,38.20
2023-03-07T05:06:17.021Z,36.10
2023-03-07T05:08:48.967Z,36.90
2023-03-07T05:11:17.203Z,36.40
2023-03-07T05:13:45.132Z,38.50
2023-03-07T05:16:17.626Z,42.00
2023-03-07T05:18:45.508Z,43.40
2023-03-07T05:21:13.442Z,50.30
2023-03-07T05:23:41.444Z,54.00
2023-03-07T05:26:10.092Z,52.40
2023-03-07T05:28:38.268Z,50.00
2023-03-07T05:31:05.909Z,52.00
2023-03-07T05:33:33.911Z,58.70
2023-03-07T05:36:02.240Z,61.00
2023-03-07T05:38:30.665Z,57.50
2023-03-07T05:40:58.337Z,57.50
2023-03-07T05:43:26.474Z,54.30
2023-03-07T05:45:54.397Z,61.00
2023-03-07T05:48:22.234Z,62.60
2023-03-07T05:50:50.391Z,64.90
2023-03-07T05:53:19.644Z,65.00
2023-03-07T05:55:47.901Z,63.10
2023-03-07T05:58:17.699Z,62.20
2023-03-07T06:00:47.022Z,64.50
2023-03-07T06:03:15.441Z,62.10
2023-03-07T06:05:43.380Z,60.10
2023-03-07T06:08:11.047Z,57.90
2023-03-07T06:10:40.197Z,56.70
2023-03-07T06:13:19.836Z,53.80
2023-03-07T06:15:54.406Z,50.10
2023-03-07T06:18:24.664Z,52.90
2023-03-07T06:21:00.836Z,52.90
2023-03-07T06:23:31.416Z,50.20
2023-03-07T06:26:00.324Z,49.80
2023-03-07T06:28:29.563Z,47.70
2023-03-07T06:30:58.003Z,48.90
2023-03-07T06:33:25.696Z,47.40
2023-03-07T06:35:53.581Z,47.80
2023-03-07T06:38:21.371Z,48.60
2023-03-07T06:40:56.557Z,50.80
2023-03-07T06:43:24.550Z,48.50
2023-03-07T06:45:52.448Z,50.10
2023-03-07T06:48:20.990Z,49.30
2023-03-07T06:50:48.794Z,49.60
2023-03-07T06:53:16.685Z,49.50
2023-03-07T06:55:49.598Z,46.70
2023-03-07T06:58:17.586Z,48.50
2023-03-07T07:00:45.851Z,47.40
2023-03-07T07:03:14.786Z,46.20
2023-03-07T07:05:42.654Z,46.50
2023-03-07T07:08:10.419Z,45.60
2023-03-07T07:10:38.356Z,45.20
2023-03-07T07:13:06.699Z,47.20
2023-03-07T07:15:34.543Z,44.10
2023-03-07T07:18:02.396Z,45.50
2023-03-07T07:20:33.140Z,43.60
2023-03-07T07:23:01.199Z,45.70
2023-03-07T07:25:28.833Z,46.40
2023-03-07T07:27:56.589Z,44.40
2023-03-07T07:30:24.782Z,46.70
2023-03-07T07:32:52.496Z,44.70
2023-03-07T07:35:22.274Z,43.80
2023-03-07T07:37:49.986Z,45.90
2023-03-07T07:40:17.836Z,46.00
2023-03-07T07:42:54.636Z,44.00
2023-03-07T07:45:42.154Z,47.10
2023-03-07T07:48:10.489Z,47.80
2023-03-07T07:50:38.611Z,49.70
2023-03-07T07:53:06.647Z,48.60
2023-03-07T07:55:34.943Z,48.80
2023-03-07T07:58:02.669Z,48.90
2023-03-07T08:00:31.131Z,48.60
2023-03-07T08:02:59.157Z,48.50
2023-03-07T08:05:26.866Z,50.50
2023-03-07T08:07:54.554Z,48.20
2023-03-07T08:10:22.226Z,48.10
2023-03-07T08:12:53.461Z,48.20
2023-03-07T08:15:24.217Z,49.00
2023-03-07T08:17:52.611Z,49.10
2023-03-07T08:20:22.429Z,48.50
2023-03-07T08:22:53.199Z,46.40
2023-03-07T08:25:23.723Z,46.50
2023-03-07T08:27:55.590Z,45.20
2023-03-07T08:30:25.522Z,43.90
2023-03-07T08:32:54.236Z,44.30
2023-03-07T08:35:22.896Z,44.20
2023-03-07T08:37:54.589Z,44.30
2023-03-07T08:40:24.813Z,43.20
2023-03-07T08:42:54.976Z,42.40
2023-03-07T08:45:23.768Z,42.40
2023-03-07T08:47:55.508Z,42.10
2023-03-07T08:50:25.922Z,41.50
2023-03-07T08:52:53.752Z,40.40
2023-03-07T08:55:21.387Z,42.50
2023-03-07T08:57:49.027Z,40.10
2023-03-07T09:00:17.865Z,41.70
2023-03-07T09:02:45.656Z,41.70
2023-03-07T09:05:14.224Z,42.80
2023-03-07T09:07:42.414Z,42.90
2023-03-07T09:10:11.634Z,44.80
2023-03-07T09:12:39.261Z,43.20
2023-03-07T09:15:08.671Z,43.60
2023-03-07T09:17:36.339Z,41.80
2023-03-07T09:20:06.178Z,42.20
2023-03-07T09:22:33.773Z,44.50
2023-03-07T09:25:01.682Z,46.50
2023-03-07T09:27:29.330Z,45.70
2023-03-07T09:29:56.897Z,44.20
2023-03-07T09:32:24.515Z,44.00
2023-03-07T09:34:53.169Z,43.10
2023-03-07T09:37:20.828Z,42.10
2023-03-07T09:39:51.351Z,42.10
2023-03-07T09:42:29.899Z,39.60
2023-03-07T09:45:03.767Z,39.80
2023-03-07T09:48:24.759Z,39.40
2023-03-07T09:50:54.875Z,40.90
2023-03-07T09:53:35.584Z,42.30
2023-03-07T09:56:07.156Z,42.00
2023-03-07T09:58:38.910Z,39.40
2023-03-07T10:01:08.467Z,40.70
2023-03-07T10:03:48.464Z,40.60
2023-03-07T10:06:26.688Z,41.10
2023-03-07T10:08:55.111Z,37.00
2023-03-07T10:11:43.281Z,34.10
2023-03-07T10:14:39.166Z,36.40
2023-03-07T10:17:44.600Z,35.10
2023-03-07T10:20:24.771Z,34.80
2023-03-07T10:22:59.913Z,36.70
2023-03-07T10:25:53.999Z,35.00
2023-03-07T10:28:27.483Z,33.10
2023-03-07T10:30:59.157Z,34.20
2023-03-07T10:33:29.158Z,34.00
2023-03-07T10:36:08.343Z,31.80
2023-03-07T10:39:13.016Z,34.00
2023-03-07T10:41:40.724Z,32.10
2023-03-07T10:44:17.766Z,31.80
2023-03-07T10:46:55.305Z,30.90
2023-03-07T10:49:37.859Z,28.20
2023-03-07T10:52:20.068Z,27.80
2023-03-07T10:54:47.668Z,28.30
2023-03-07T10:57:19.176Z,27.40
2023-03-07T10:59:48.561Z,28.10
2023-03-07T11:02:26.966Z,25.50
2023-03-07T11:04:55.269Z,27.40
2023-03-07T11:07:34.703Z,22.40
2023-03-07T11:10:33.159Z,22.50
2023-03-07T11:13:17.025Z,22.10
2023-03-07T11:15:45.234Z,22.40
2023-03-07T11:18:31.179Z,20.30
2023-03-07T11:20:59.268Z,21.60
2023-03-07T11:23:29.003Z,21.10
2023-03-07T11:25:58.788Z,21.10
2023-03-07T11:28:30.522Z,19.40
2023-03-07T11:31:07.661Z,19.50
2023-03-07T11:33:58.491Z,19.50
2023-03-07T11:36:32.035Z,17.40
2023-03-07T11:39:14.752Z,18.10
2023-03-07T11:41:46.969Z,18.70
2023-03-07T11:44:29.832Z,18.10
2023-03-07T11:47:38.534Z,18.00
2023-03-07T11:50:12.804Z,16.40
2023-03-07T11:52:59.557Z,17.60
2023-03-07T11:55:36.518Z,16.70
2023-03-07T11:58:35.528Z,16.30
2023-03-07T12:01:16.024Z,16.80
2023-03-07T12:03:55.868Z,17.50
2023-03-07T12:06:50.494Z,16.70
2023-03-07T12:09:36.987Z,16.30
2023-03-07T12:12:10.508Z,17.50
2023-03-07T12:14:50.323Z,17.90
2023-03-07T12:17:29.363Z,17.50
2023-03-07T12:20:35.040Z,17.40
2023-03-07T12:23:15.600Z,15.70
2023-03-07T12:25:46.200Z,16.70
2023-03-07T12:28:22.173Z,19.60
2023-03-07T12:30:56.339Z,21.30
2023-03-07T12:33:29.497Z,22.90
2023-03-07T12:36:04.859Z,19.60
2023-03-07T12:38:57.972Z,22.00
2023-03-07T12:41:44.283Z,18.80
2023-03-07T12:44:30.004Z,17.30
2023-03-07T12:47:20.134Z,28.20
2023-03-07T12:50:00.560Z,23.20
2023-03-07T12:52:34.435Z,21.90
2023-03-07T12:55:36.395Z,20.30
2023-03-07T12:58:13.372Z,18.80
2023-03-07T13:00:46.668Z,17.60
2023-03-07T13:03:48.756Z,16.50
2023-03-07T13:06:21.078Z,18.70
2023-03-07T13:08:54.659Z,16.80
2023-03-07T13:11:25.102Z,17.70
2023-03-07T13:13:53.810Z,17.70
2023-03-07T13:16:42.209Z,19.00
2023-03-07T13:19:35.237Z,18.40
2023-03-07T13:22:15.241Z,17.90
2023-03-07T13:24:44.275Z,21.30
2023-03-07T13:27:17.534Z,18.70
2023-03-07T13:30:10.425Z,21.40
2023-03-07T13:32:56.418Z,18.50
2023-03-07T13:35:24.074Z,19.10
2023-03-07T13:37:57.262Z,19.80
2023-03-07T13:40:36.979Z,19.10
2023-03-07T13:43:09.875Z,19.80
2023-03-07T13:45:37.456Z,19.90
2023-03-07T13:48:12.228Z,20.10
2023-03-07T13:50:42.956Z,18.80
2023-03-07T13:53:16.087Z,19.40
2023-03-07T13:55:50.882Z,20.20
2023-03-07T13:58:24.124Z,17.90
2023-03-07T14:01:04.200Z,17.50
2023-03-07T14:03:46.052Z,20.20
2023-03-07T14:06:17.056Z,18.40
2023-03-07T14:08:45.742Z,23.50
2023-03-07T14:11:21.156Z,22.80
2023-03-07T14:14:05.599Z,17.30
2023-03-07T14:16:54.139Z,17.90
2023-03-07T14:20:09.590Z,17.40
2023-03-07T14:22:40.951Z,16.90
2023-03-07T14:25:17.524Z,18.60
2023-03-07T14:28:00.220Z,17.40
2023-03-07T14:30:31.412Z,18.60
2023-03-07T14:33:00.160Z,18.40
2023-03-07T14:35:42.315Z,16.90
2023-03-07T14:38:20.232Z,18.60
2023-03-07T14:41:15.042Z,17.80
2023-03-07T14:43:52.893Z,16.40
2023-03-07T14:46:45.234Z,17.30
2023-03-07T14:49:42.488Z,17.20
2023-03-07T14:52:24.676Z,16.60
2023-03-07T14:55:00.184Z,15.70
2023-03-07T14:57:33.280Z,16.20
2023-03-07T15:00:15.458Z,16.20
2023-03-07T15:02:54.155Z,15.70
2023-03-07T15:05:29.222Z,17.10
2023-03-07T15:07:57.250Z,15.40
2023-03-07T15:10:28.350Z,14.90
2023-03-07T15:12:57.217Z,15.70
2023-03-07T15:15:35.801Z,16.70
2023-03-07T15:18:07.352Z,15.70
2023-03-07T15:20:35.261Z,15.00
2023-03-07T15:23:06.036Z,15.70
2023-03-07T15:25:38.669Z,17.50
2023-03-07T15:28:16.898Z,15.70
2023-03-07T15:30:48.145Z,14.60
2023-03-07T15:33:18.578Z,15.10
2023-03-07T15:36:08.426Z,15.30
2023-03-07T15:38:36.143Z,14.80
2023-03-07T15:41:24.224Z,21.50
2023-03-07T15:44:12.088Z,14.40
2023-03-07T15:46:51.627Z,15.20
2023-03-07T15:49:41.595Z,14.60
2023-03-07T15:52:27.715Z,14.90
2023-03-07T15:54:57.716Z,16.90
2023-03-07T15:57:34.321Z,15.50
2023-03-07T16:00:08.458Z,14.50
2023-03-07T16:02:39.735Z,14.10
2023-03-07T16:05:28.105Z,15.30
2023-03-07T16:07:59.608Z,15.20
2023-03-07T16:10:52.745Z,14.70
2023-03-07T16:13:34.597Z,14.90
2023-03-07T16:16:13.668Z,16.30
2023-03-07T16:18:42.415Z,15.30
2023-03-07T16:21:14.959Z,14.50
2023-03-07T16:23:44.677Z,14.20
2023-03-07T16:26:16.225Z,14.80
2023-03-07T16:28:44.452Z,15.00
2023-03-07T16:31:13.372Z,14.80
2023-03-07T16:33:40.967Z,15.00
2023-03-07T16:36:10.371Z,13.60
2023-03-07T16:38:38.395Z,13.90
2023-03-07T16:41:16.684Z,14.90
2023-03-07T16:43:45.575Z,13.20
2023-03-07T16:46:18.078Z,14.60
2023-03-07T16:48:45.812Z,15.50
2023-03-07T16:51:18.879Z,14.40
2023-03-07T16:53:47.706Z,14.40
2023-03-07T16:56:29.756Z,14.30
2023-03-07T16:58:58.602Z,14.40
2023-03-07T17:01:26.299Z,14.80
2023-03-07T17:03:56.366Z,14.30
2023-03-07T17:06:37.218Z,13.90
2023-03-07T17:09:11.274Z,14.20
2023-03-07T17:11:40.726Z,14.10
2023-03-07T17:14:08.702Z,14.10
2023-03-07T17:16:40.101Z,14.30
2023-03-07T17:19:33.976Z,14.70
2023-03-07T17:22:03.017Z,15.70
2023-03-07T17:24:31.091Z,15.30
2023-03-07T17:27:00.380Z,14.70
2023-03-07T17:29:30.735Z,13.80
2023-03-07T17:31:58.408Z,15.00
2023-03-07T17:34:31.435Z,14.00
2023-03-07T17:37:00.351Z,15.40
2023-03-07T17:39:32.281Z,14.90
2023-03-07T17:42:00.768Z,14.60
2023-03-07T17:44:29.179Z,15.70
2023-03-07T17:46:57.220Z,15.40
2023-03-07T17:49:28.125Z,15.50
2023-03-07T17:51:55.689Z,13.90
2023-03-07T17:54:23.265Z,15.10
2023-03-07T17:56:51.025Z,14.10
2023-03-07T17:59:18.693Z,13.90
2023-03-07T18:01:46.308Z,14.70
2023-03-07T18:04:14.025Z,14.10
2023-03-07T18:06:41.697Z,14.70
2023-03-07T18:09:09.438Z,13.70
2023-03-07T18:11:37.076Z,14.80
2023-03-07T18:14:04.696Z,15.70
2023-03-07T18:16:32.748Z,14.10
2023-03-07T18:19:02.952Z,14.10
2023-03-07T18:21:32.490Z,13.60
2023-03-07T18:24:00.151Z,15.50
2023-03-07T18:26:28.098Z,14.90
2023-03-07T18:28:56.525Z,15.30
2023-03-07T18:31:28.241Z,15.50
2023-03-07T18:33:56.244Z,20.20
2023-03-07T18:36:25.327Z,15.80
2023-03-07T18:38:52.947Z,16.60
2023-03-07T18:41:22.457Z,15.60
2023-03-07T18:43:50.744Z,17.70
2023-03-07T18:46:20.367Z,19.70
2023-03-07T18:48:48.212Z,16.90
2023-03-07T18:51:18.396Z,15.00
2023-03-07T18:53:46.047Z,14.90
2023-03-07T18:56:15.858Z,14.90
2023-03-07T18:58:44.565Z,13.80
2023-03-07T19:01:14.870Z,13.50
2023-03-07T19:03:43.227Z,13.60
2023-03-07T19:06:12.399Z,12.90
2023-03-07T19:08:40.540Z,12.40
2023-03-07T19:11:10.859Z,12.40
2023-03-07T19:13:39.309Z,12.00
2023-03-07T19:16:23.443Z,12.10
2023-03-07T19:18:51.381Z,11.80
2023-03-07T19:21:21.547Z,12.20
2023-03-07T19:23:49.821Z,12.50
2023-03-07T19:26:18.840Z,12.70
2023-03-07T19:28:48.576Z,11.20
2023-03-07T19:31:21.510Z,14.40
2023-03-07T19:33:50.531Z,14.60
2023-03-07T19:36:23.035Z,12.50
2023-03-07T19:38:54.015Z,12.80
2023-03-07T19:41:23.679Z,12.10
2023-03-07T19:43:51.723Z,10.60
2023-03-07T19:46:20.259Z,13.40
2023-03-07T19:48:48.060Z,10.40
2023-03-07T19:51:24.195Z,10.30
2023-03-07T19:53:55.335Z,9.60
2023-03-07T19:56:30.153Z,10.20
2023-03-07T19:59:00.102Z,10.40
2023-03-07T20:01:28.976Z,10.70
2023-03-07T20:03:57.083Z,11.10
2023-03-07T20:06:27.539Z,13.70
2023-03-07T20:08:55.971Z,11.90
2023-03-07T20:11:27.347Z,11.40
2023-03-07T20:13:57.286Z,11.40
2023-03-07T20:16:27.666Z,10.80
2023-03-07T20:18:57.081Z,10.40
2023-03-07T20:21:27.976Z,10.40
2023-03-07T20:23:59.571Z,10.20
2023-03-07T20:26:33.942Z,9.60
2023-03-07T20:29:02.625Z,10.20
2023-03-07T20:31:30.486Z,10.00
2023-03-07T20:33:59.926Z,10.00
2023-03-07T20:36:36.793Z,11.30
2023-03-07T20:39:07.899Z,11.90
2023-03-07T20:41:36.176Z,10.60
2023-03-07T20:44:05.805Z,10.40
2023-03-07T20:46:35.013Z,11.00
2023-03-07T20:49:03.263Z,10.70
2023-03-07T20:51:33.208Z,11.70
2023-03-07T20:54:02.940Z,11.80
2023-03-07T20:56:32.126Z,12.30
2023-03-07T20:59:00.047Z,14.70
2023-03-07T21:01:30.051Z,13.00
2023-03-07T21:04:06.184Z,12.80
2023-03-07T21:06:34.913Z,14.10
2023-03-07T21:09:07.847Z,15.00
2023-03-07T21:11:40.646Z,12.90
2023-03-07T21:14:08.501Z,13.50
2023-03-07T21:16:36.364Z,13.10
2023-03-07T21:19:05.995Z,12.70
2023-03-07T21:21:34.836Z,14.80
2023-03-07T21:24:03.151Z,14.50
2023-03-07T21:26:33.048Z,17.10
2023-03-07T21:29:00.668Z,15.00
2023-03-07T21:31:31.007Z,19.00
2023-03-07T21:34:04.059Z,18.40
2023-03-07T21:36:31.979Z,14.70
2023-03-07T21:39:00.347Z,12.00
2023-03-07T21:41:27.960Z,8.20
2023-03-07T21:43:56.533Z,5.80
2023-03-07T21:46:24.747Z,5.60
2023-03-07T21:48:52.447Z,5.70
2023-03-07T21:51:20.608Z,5.00
2023-03-07T21:53:48.399Z,5.60
2023-03-07T21:56:17.144Z,6.20
2023-03-07T21:58:49.157Z,5.10
2023-03-07T22:01:19.855Z,5.50
2023-03-07T22:03:47.761Z,5.00
2023-03-07T22:06:16.750Z,7.80
2023-03-07T22:08:44.495Z,6.20
2023-03-07T22:11:12.961Z,7.00
2023-03-07T22:13:41.771Z,5.10
2023-03-07T22:16:15.114Z,4.70
2023-03-07T22:18:42.966Z,5.70
2023-03-07T22:21:17.101Z,6.60
2023-03-07T22:23:44.780Z,7.00
2023-03-07T22:26:12.910Z,10.60
2023-03-07T22:28:41.129Z,17.00
2023-03-07T22:31:11.360Z,7.60
2023-03-07T22:33:40.250Z,8.90
2023-03-07T22:36:11.315Z,9.60
2023-03-07T22:38:39.638Z,12.50
2023-03-07T22:41:11.382Z,12.70
2023-03-07T22:43:39.100Z,11.80
2023-03-07T22:46:07.882Z,14.20
2023-03-07T22:48:36.165Z,12.00
2023-03-07T22:51:04.491Z,13.50
2023-03-07T22:53:33.444Z,11.50
2023-03-07T22:56:01.512Z,15.20
2023-03-07T22:58:29.912Z,11.90
2023-03-07T23:00:57.549Z,13.00
2023-03-07T23:03:25.314Z,11.60
2023-03-07T23:05:53.031Z,11.40
2023-03-07T23:08:20.688Z,11.30
2023-03-07T23:10:48.330Z,12.30
2023-03-07T23:13:17.216Z,15.00
2023-03-07T23:15:44.950Z,13.60
2023-03-07T23:18:12.618Z,18.00
2023-03-07T23:20:40.234Z,14.90
2023-03-07T23:23:07.807Z,14.20
2023-03-07T23:25:41.200Z,11.90
2023-03-07T23:28:09.488Z,12.90
2023-03-07T23:30:38.611Z,13.60
2023-03-07T23:33:07.045Z,13.80
2023-03-07T23:35:35.327Z,12.90
2023-03-07T23:38:03.764Z,12.30
2023-03-07T23:40:31.434Z,11.50
2023-03-07T23:42:59.051Z,10.30
2023-03-07T23:45:26.844Z,10.10
2023-03-07T23:47:54.736Z,9.60
2023-03-07T23:50:22.581Z,10.30
2023-03-07T23:52:50.188Z,11.70
2023-03-07T23:55:17.856Z,9.90
2023-03-07T23:57:46.500Z,11.60
